Αρχική σελίδα
METAR-TAF:

METAR-TAF

Αεροδρόμια :

Chicago O'Hare International Airport

Σικάγο, Ιλινόις, Ηνωμένες Πολιτείες Αμερικής

γεωγραφικό πλάτος: 41-58-47N, γεωγραφικό μήκος: 087-54-16W, υψόμετρο: 203 μ

Παρών καιρός

Η αναφορά έγινε 40 λεπτά πριν, στις 03:51 UTC
Ήπιος άνεμος
Θερμοκρασία 13°C
Υγρασία 77%
Πίεση 1022 hPa
Ορατότητα: 16.1 χλμ
Λίγα νέφη σε ύψος 4000 πόδια

METAR: KORD 230351Z 00000KT 10SM FEW040 13/09 A3019 RMK AO2 SLP224 T01330089

Χρόνος: 23:31 (04:31 UTC)

Πρόγνωση Καιρού

Η αναφορά έγινε 1 ώρα και 43 λεπτά πριν, στις 02:48 UTC
Η πρόγνωση ισχύει από τις 23 στις 03 UTC έως τις 24 στις 06 UTC
Άνεμος 3 kt από ΝA
Ορατότητα: 10 χλμ
Καθαρός ουρανός
Από 23 στις 1700 UTC
Άνεμος 11 kt από Α
Ορατότητα: 10 χλμ
Καθαρός ουρανός
Από 24 στις 0000 UTC
Άνεμος 5 kt από Α/NA
Ορατότητα: 10 χλμ
Καθαρός ουρανός

TAF: KORD 230248Z 2303/2406 13003KT P6SM SKC FM231700 10011KT P6SM SKC FM240000 11005KT P6SM SKC

Μετεωρολογικές αναφορές και προγνώσεις για περισσότερα από 4000 αεροδρόμια (δελτία METAR και TAF).

Οι διαθέσιμοι σταθμοί απεικονίζονται στο χάρτη με κίτρινες και κόκκινες κουκκίδες.

Μετακινήστε το ποντίκι πάνω από τις κουκκίδες για να δείτε το όνομα του σταθμού.

Στη συνέχεια, κάντε κλικ για να δείτε τις μετεωρολογικές αναφορές και τις προγνώσεις καιρού.

Για να αλλάξετε το χάρτη: κάντε κλικ στα πράσινα κουμπιά με τον μαύρο σταυρό για να ζουμάρετε, στο πράσινο κουμπί με την παύλα για να αφαιρέσετε το ζουμ ή στα πράσινα βέλη για να αντιπαραβάλλετε χάρτες.


METAR-TAF: